This is the latest recevied weather packets stored in our database for station/object Ummendorf. If no packets are shown the sender has not sent any weather packets the latest 10 day(s).
| Time | Temp. | Humidity | Pressure | Rain* | Wind** | Luminosity | Snow |
|---|---|---|---|---|---|---|---|
| 1777626132 | 13.89° C | 25% | 1027.7 hPa | 0 mm | - | - | - |
| 1777624331 | 12.78° C | 27% | 1027.5 hPa | 0 mm | - | - | - |
| 1777622532 | 11.11° C | 31% | 1027.6 hPa | 0 mm | - | - | - |
| 1777620733 | 10° C | 31% | 1027.8 hPa | 0 mm | - | - | - |
| 1777618930 | 8.89° C | 34% | 1027.7 hPa | 0 mm | - | - | - |
| 1777617131 | 7.22° C | 39% | 1027.5 hPa | 0 mm | - | - | - |
| 1777615333 | 5.56° C | 43% | 1027.4 hPa | 0 mm | - | - | - |
| 1777613531 | 3.89° C | 48% | 1027.1 hPa | 0 mm | - | - | - |
| 1777611731 | 1.67° C | 52% | 1027.1 hPa | 0 mm | - | - | - |
| 1777609931 | 1.67° C | 51% | 1026.8 hPa | 0 mm | - | - | - |
| 1777608131 | 1.67° C | 51% | 1026.5 hPa | 0 mm | - | - | - |
| 1777606332 | 2.22° C | 47% | 1026.7 hPa | 0 mm | - | - | - |
| 1777604532 | 3.33° C | 46% | 1026.7 hPa | 0 mm | - | - | - |
| 1777602733 | 3.89° C | 42% | 1026.4 hPa | 0 mm | - | - | - |
| 1777600931 | 5° C | 38% | 1026.4 hPa | 0 mm | - | - | - |
| 1777599131 | 5.56° C | 34% | 1026.5 hPa | 0 mm | - | - | - |
| 1777597332 | 6.11° C | 33% | 1026.5 hPa | 0 mm | - | - | - |
| 1777595529 | 6.67° C | 32% | 1026.4 hPa | 0 mm | - | - | - |
| 1777593730 | 7.22° C | 30% | 1026.2 hPa | 0 mm | - | - | - |
| 1777591929 | 7.78° C | 28% | 1026.2 hPa | 0 mm | - | - | - |
| 1777590129 | 7.78° C | 28% | 1026.2 hPa | 0 mm | - | - | - |
| 1777588329 | 8.33° C | 27% | 1026.4 hPa | 0 mm | - | - | - |
| 1777584729 | 8.89° C | 26% | 1026.3 hPa | 0 mm | - | - | - |
| 1777582929 | 8.89° C | 26% | 1026.3 hPa | 0 mm | - | - | - |
| 1777581135 | 9.44° C | 26% | 1026.2 hPa | 0 mm | - | - | - |
* Rain since midnight (hover to see other rain measurements)
** Current wind speed in m/s (hover to see current wind gust speed)